sensor_id;sensor_type;location;lat;lon;timestamp;P1;durP1;ratioP1;P2;durP2;ratioP2
44197;SDS011;30157;55.512;37.764;2023-04-25T00:01:31;10.50;;;6.18;;
44197;SDS011;30157;55.512;37.764;2023-04-25T00:04:02;12.65;;;6.40;;
44197;SDS011;30157;55.512;37.764;2023-04-25T00:06:28;12.15;;;7.10;;
44197;SDS011;30157;55.512;37.764;2023-04-25T00:08:55;12.60;;;7.28;;
44197;SDS011;30157;55.512;37.764;2023-04-25T00:11:22;12.93;;;6.72;;
44197;SDS011;30157;55.512;37.764;2023-04-25T00:13:48;10.98;;;6.93;;
44197;SDS011;30157;55.512;37.764;2023-04-25T00:16:16;14.52;;;7.55;;
44197;SDS011;30157;55.512;37.764;2023-04-25T00:18:42;10.80;;;7.20;;
44197;SDS011;30157;55.512;37.764;2023-04-25T00:21:08;12.52;;;7.43;;
44197;SDS011;30157;55.512;37.764;2023-04-25T00:23:34;9.95;;;7.35;;
44197;SDS011;30157;55.512;37.764;2023-04-25T00:26:02;10.57;;;7.10;;
44197;SDS011;30157;55.512;37.764;2023-04-25T00:28:28;11.35;;;7.35;;
44197;SDS011;30157;55.512;37.764;2023-04-25T00:30:53;11.13;;;7.03;;
44197;SDS011;30157;55.512;37.764;2023-04-25T00:33:19;10.23;;;7.32;;
44197;SDS011;30157;55.512;37.764;2023-04-25T00:35:46;11.55;;;7.43;;
44197;SDS011;30157;55.512;37.764;2023-04-25T00:38:12;8.68;;;6.72;;
44197;SDS011;30157;55.512;37.764;2023-04-25T00:40:37;10.68;;;7.15;;
44197;SDS011;30157;55.512;37.764;2023-04-25T00:43:03;15.35;;;7.47;;
44197;SDS011;30157;55.512;37.764;2023-04-25T00:45:29;11.32;;;6.75;;
44197;SDS011;30157;55.512;37.764;2023-04-25T00:47:55;11.13;;;7.75;;
44197;SDS011;30157;55.512;37.764;2023-04-25T00:50:22;9.65;;;7.32;;
44197;SDS011;30157;55.512;37.764;2023-04-25T00:52:48;11.15;;;7.07;;
44197;SDS011;30157;55.512;37.764;2023-04-25T00:55:15;9.35;;;7.65;;
44197;SDS011;30157;55.512;37.764;2023-04-25T00:57:41;8.95;;;6.75;;
44197;SDS011;30157;55.512;37.764;2023-04-25T01:00:08;12.02;;;7.90;;
44197;SDS011;30157;55.512;37.764;2023-04-25T01:02:35;12.98;;;7.60;;
44197;SDS011;30157;55.512;37.764;2023-04-25T01:05:01;11.75;;;7.82;;
44197;SDS011;30157;55.512;37.764;2023-04-25T01:07:31;13.35;;;7.70;;
44197;SDS011;30157;55.512;37.764;2023-04-25T01:09:57;10.68;;;7.57;;
44197;SDS011;30157;55.512;37.764;2023-04-25T01:12:23;12.50;;;7.32;;
44197;SDS011;30157;55.512;37.764;2023-04-25T01:14:49;9.65;;;7.10;;
44197;SDS011;30157;55.512;37.764;2023-04-25T01:17:15;12.57;;;8.07;;
44197;SDS011;30157;55.512;37.764;2023-04-25T01:19:42;11.82;;;7.82;;
44197;SDS011;30157;55.512;37.764;2023-04-25T01:22:08;10.38;;;6.60;;
44197;SDS011;30157;55.512;37.764;2023-04-25T01:24:36;10.48;;;7.10;;
44197;SDS011;30157;55.512;37.764;2023-04-25T01:27:03;10.30;;;6.75;;
44197;SDS011;30157;55.512;37.764;2023-04-25T01:29:29;11.23;;;8.10;;
44197;SDS011;30157;55.512;37.764;2023-04-25T01:31:56;13.10;;;8.00;;
44197;SDS011;30157;55.512;37.764;2023-04-25T01:34:24;11.55;;;7.32;;
44197;SDS011;30157;55.512;37.764;2023-04-25T01:36:51;12.63;;;8.70;;
44197;SDS011;30157;55.512;37.764;2023-04-25T01:39:17;11.70;;;7.50;;
44197;SDS011;30157;55.512;37.764;2023-04-25T01:41:44;13.10;;;8.60;;
44197;SDS011;30157;55.512;37.764;2023-04-25T01:44:11;13.40;;;8.45;;
44197;SDS011;30157;55.512;37.764;2023-04-25T01:46:37;11.07;;;8.38;;
44197;SDS011;30157;55.512;37.764;2023-04-25T01:49:04;11.95;;;8.05;;
44197;SDS011;30157;55.512;37.764;2023-04-25T01:51:30;14.20;;;8.25;;
44197;SDS011;30157;55.512;37.764;2023-04-25T01:53:57;10.85;;;8.27;;
44197;SDS011;30157;55.512;37.764;2023-04-25T01:56:24;15.35;;;8.60;;
44197;SDS011;30157;55.512;37.764;2023-04-25T01:58:50;12.35;;;8.63;;
44197;SDS011;30157;55.512;37.764;2023-04-25T02:01:19;11.40;;;8.10;;
44197;SDS011;30157;55.512;37.764;2023-04-25T02:03:57;13.45;;;8.55;;
44197;SDS011;30157;55.512;37.764;2023-04-25T02:06:28;12.55;;;7.68;;
44197;SDS011;30157;55.512;37.764;2023-04-25T02:08:56;9.80;;;7.68;;
44197;SDS011;30157;55.512;37.764;2023-04-25T02:11:22;12.98;;;8.90;;
44197;SDS011;30157;55.512;37.764;2023-04-25T02:14:00;10.50;;;7.65;;
44197;SDS011;30157;55.512;37.764;2023-04-25T02:16:38;14.18;;;7.82;;
44197;SDS011;30157;55.512;37.764;2023-04-25T02:19:06;12.40;;;7.85;;
44197;SDS011;30157;55.512;37.764;2023-04-25T02:21:32;13.35;;;8.05;;
44197;SDS011;30157;55.512;37.764;2023-04-25T02:24:01;10.55;;;7.97;;
44197;SDS011;30157;55.512;37.764;2023-04-25T02:26:27;10.57;;;7.93;;
44197;SDS011;30157;55.512;37.764;2023-04-25T02:28:53;10.25;;;7.63;;
44197;SDS011;30157;55.512;37.764;2023-04-25T02:31:19;11.85;;;8.45;;
44197;SDS011;30157;55.512;37.764;2023-04-25T02:33:45;13.50;;;7.68;;
44197;SDS011;30157;55.512;37.764;2023-04-25T02:36:11;12.80;;;7.78;;
44197;SDS011;30157;55.512;37.764;2023-04-25T02:38:36;12.70;;;8.20;;
44197;SDS011;30157;55.512;37.764;2023-04-25T02:41:03;12.15;;;7.90;;
44197;SDS011;30157;55.512;37.764;2023-04-25T02:43:29;12.73;;;7.28;;
44197;SDS011;30157;55.512;37.764;2023-04-25T02:45:55;12.15;;;7.57;;
44197;SDS011;30157;55.512;37.764;2023-04-25T02:48:21;10.02;;;7.03;;
44197;SDS011;30157;55.512;37.764;2023-04-25T02:50:47;10.02;;;7.00;;
44197;SDS011;30157;55.512;37.764;2023-04-25T02:53:13;10.65;;;7.18;;
44197;SDS011;30157;55.512;37.764;2023-04-25T02:55:45;16.23;;;7.97;;
44197;SDS011;30157;55.512;37.764;2023-04-25T02:58:11;14.05;;;8.00;;
44197;SDS011;30157;55.512;37.764;2023-04-25T03:00:43;11.65;;;6.97;;
44197;SDS011;30157;55.512;37.764;2023-04-25T03:03:09;12.25;;;8.32;;
44197;SDS011;30157;55.512;37.764;2023-04-25T03:05:35;15.15;;;8.25;;
44197;SDS011;30157;55.512;37.764;2023-04-25T03:08:00;11.95;;;8.40;;
44197;SDS011;30157;55.512;37.764;2023-04-25T03:10:27;13.07;;;8.95;;
44197;SDS011;30157;55.512;37.764;2023-04-25T03:12:55;14.00;;;8.75;;
44197;SDS011;30157;55.512;37.764;2023-04-25T03:15:20;13.23;;;8.60;;
44197;SDS011;30157;55.512;37.764;2023-04-25T03:17:46;13.18;;;7.80;;
44197;SDS011;30157;55.512;37.764;2023-04-25T03:20:12;15.20;;;9.00;;
44197;SDS011;30157;55.512;37.764;2023-04-25T03:22:38;14.52;;;10.07;;
44197;SDS011;30157;55.512;37.764;2023-04-25T03:25:03;16.60;;;10.20;;
44197;SDS011;30157;55.512;37.764;2023-04-25T03:27:31;16.90;;;9.80;;
44197;SDS011;30157;55.512;37.764;2023-04-25T03:29:56;14.82;;;10.57;;
44197;SDS011;30157;55.512;37.764;2023-04-25T03:32:23;16.10;;;10.43;;
44197;SDS011;30157;55.512;37.764;2023-04-25T03:34:49;15.18;;;9.52;;
44197;SDS011;30157;55.512;37.764;2023-04-25T03:37:15;17.40;;;10.02;;
44197;SDS011;30157;55.512;37.764;2023-04-25T03:39:40;13.05;;;8.85;;
44197;SDS011;30157;55.512;37.764;2023-04-25T03:42:06;12.40;;;9.10;;
44197;SDS011;30157;55.512;37.764;2023-04-25T03:44:32;17.15;;;10.48;;
44197;SDS011;30157;55.512;37.764;2023-04-25T03:46:59;12.13;;;9.25;;
44197;SDS011;30157;55.512;37.764;2023-04-25T03:49:24;13.82;;;10.50;;
44197;SDS011;30157;55.512;37.764;2023-04-25T03:52:02;13.90;;;9.52;;
44197;SDS011;30157;55.512;37.764;2023-04-25T03:54:33;15.07;;;9.95;;
44197;SDS011;30157;55.512;37.764;2023-04-25T03:57:04;15.60;;;10.82;;
44197;SDS011;30157;55.512;37.764;2023-04-25T03:59:33;15.73;;;10.40;;
44197;SDS011;30157;55.512;37.764;2023-04-25T04:01:59;14.77;;;9.23;;
44197;SDS011;30157;55.512;37.764;2023-04-25T04:04:27;16.85;;;10.60;;
44197;SDS011;30157;55.512;37.764;2023-04-25T04:06:52;13.68;;;9.68;;
44197;SDS011;30157;55.512;37.764;2023-04-25T04:09:25;13.70;;;10.00;;
44197;SDS011;30157;55.512;37.764;2023-04-25T04:11:51;15.73;;;10.27;;
44197;SDS011;30157;55.512;37.764;2023-04-25T04:14:17;14.35;;;9.55;;
44197;SDS011;30157;55.512;37.764;2023-04-25T04:16:45;13.88;;;9.00;;
44197;SDS011;30157;55.512;37.764;2023-04-25T04:19:10;13.20;;;8.88;;
44197;SDS011;30157;55.512;37.764;2023-04-25T04:21:39;15.65;;;9.65;;
44197;SDS011;30157;55.512;37.764;2023-04-25T04:24:05;13.98;;;8.02;;
44197;SDS011;30157;55.512;37.764;2023-04-25T04:26:42;11.80;;;7.75;;
44197;SDS011;30157;55.512;37.764;2023-04-25T04:29:48;11.23;;;8.68;;
44197;SDS011;30157;55.512;37.764;2023-04-25T04:32:23;14.38;;;9.43;;
44197;SDS011;30157;55.512;37.764;2023-04-25T04:34:51;13.25;;;8.90;;
44197;SDS011;30157;55.512;37.764;2023-04-25T04:37:20;11.60;;;8.73;;
44197;SDS011;30157;55.512;37.764;2023-04-25T04:39:46;12.77;;;8.63;;
44197;SDS011;30157;55.512;37.764;2023-04-25T04:42:38;11.18;;;8.25;;
44197;SDS011;30157;55.512;37.764;2023-04-25T04:45:21;12.48;;;8.10;;
44197;SDS011;30157;55.512;37.764;2023-04-25T04:48:06;11.55;;;7.78;;
44197;SDS011;30157;55.512;37.764;2023-04-25T04:50:45;14.13;;;8.10;;
44197;SDS011;30157;55.512;37.764;2023-04-25T04:53:43;12.18;;;7.75;;
44197;SDS011;30157;55.512;37.764;2023-04-25T04:56:41;13.52;;;8.07;;
44197;SDS011;30157;55.512;37.764;2023-04-25T04:59:25;14.02;;;8.13;;
44197;SDS011;30157;55.512;37.764;2023-04-25T05:02:10;12.13;;;7.87;;
44197;SDS011;30157;55.512;37.764;2023-04-25T05:04:56;9.77;;;7.15;;
44197;SDS011;30157;55.512;37.764;2023-04-25T05:07:54;10.68;;;8.45;;
44197;SDS011;30157;55.512;37.764;2023-04-25T05:10:43;9.75;;;6.88;;
44197;SDS011;30157;55.512;37.764;2023-04-25T05:13:19;11.60;;;7.50;;
44197;SDS011;30157;55.512;37.764;2023-04-25T05:16:05;10.15;;;7.18;;
44197;SDS011;30157;55.512;37.764;2023-04-25T05:18:45;8.60;;;6.60;;
44197;SDS011;30157;55.512;37.764;2023-04-25T05:24:07;9.68;;;6.97;;
44197;SDS011;30157;55.512;37.764;2023-04-25T05:26:51;11.20;;;7.38;;
44197;SDS011;30157;55.512;37.764;2023-04-25T05:29:35;11.02;;;7.15;;
44197;SDS011;30157;55.512;37.764;2023-04-25T05:32:10;8.50;;;6.18;;
44197;SDS011;30157;55.512;37.764;2023-04-25T05:34:36;10.55;;;6.75;;
44197;SDS011;30157;55.512;37.764;2023-04-25T05:37:05;9.25;;;5.70;;
44197;SDS011;30157;55.512;37.764;2023-04-25T05:39:34;9.27;;;5.90;;
44197;SDS011;30157;55.512;37.764;2023-04-25T05:42:26;9.40;;;5.40;;
44197;SDS011;30157;55.512;37.764;2023-04-25T05:44:52;9.07;;;5.80;;
44197;SDS011;30157;55.512;37.764;2023-04-25T05:47:44;6.32;;;4.45;;
44197;SDS011;30157;55.512;37.764;2023-04-25T05:50:16;8.80;;;5.47;;
44197;SDS011;30157;55.512;37.764;2023-04-25T05:52:49;9.80;;;5.97;;
44197;SDS011;30157;55.512;37.764;2023-04-25T05:55:41;6.30;;;4.65;;
44197;SDS011;30157;55.512;37.764;2023-04-25T05:58:24;6.10;;;4.32;;
44197;SDS011;30157;55.512;37.764;2023-04-25T06:00:51;8.48;;;5.32;;
44197;SDS011;30157;55.512;37.764;2023-04-25T06:03:17;6.47;;;4.72;;
44197;SDS011;30157;55.512;37.764;2023-04-25T06:05:44;5.38;;;3.97;;
44197;SDS011;30157;55.512;37.764;2023-04-25T06:08:10;6.78;;;4.10;;
44197;SDS011;30157;55.512;37.764;2023-04-25T06:10:37;5.47;;;3.47;;
44197;SDS011;30157;55.512;37.764;2023-04-25T06:13:03;6.90;;;3.80;;
44197;SDS011;30157;55.512;37.764;2023-04-25T06:15:31;6.82;;;4.40;;
44197;SDS011;30157;55.512;37.764;2023-04-25T06:18:01;6.75;;;3.72;;
44197;SDS011;30157;55.512;37.764;2023-04-25T06:20:27;8.50;;;4.13;;
44197;SDS011;30157;55.512;37.764;2023-04-25T06:22:56;4.07;;;3.50;;
44197;SDS011;30157;55.512;37.764;2023-04-25T06:25:40;5.80;;;4.00;;
44197;SDS011;30157;55.512;37.764;2023-04-25T06:28:06;5.82;;;3.50;;
44197;SDS011;30157;55.512;37.764;2023-04-25T06:30:33;6.15;;;3.75;;
44197;SDS011;30157;55.512;37.764;2023-04-25T06:33:04;6.80;;;3.90;;
44197;SDS011;30157;55.512;37.764;2023-04-25T06:35:31;6.40;;;4.15;;
44197;SDS011;30157;55.512;37.764;2023-04-25T06:37:57;5.90;;;3.90;;
44197;SDS011;30157;55.512;37.764;2023-04-25T06:40:24;6.03;;;3.60;;
44197;SDS011;30157;55.512;37.764;2023-04-25T06:42:50;6.07;;;3.35;;
44197;SDS011;30157;55.512;37.764;2023-04-25T06:45:54;4.18;;;2.83;;
44197;SDS011;30157;55.512;37.764;2023-04-25T06:48:21;4.57;;;2.78;;
44197;SDS011;30157;55.512;37.764;2023-04-25T06:50:48;7.05;;;3.05;;
44197;SDS011;30157;55.512;37.764;2023-04-25T06:53:13;4.53;;;2.90;;
44197;SDS011;30157;55.512;37.764;2023-04-25T06:55:42;3.80;;;2.45;;
44197;SDS011;30157;55.512;37.764;2023-04-25T06:58:13;4.70;;;2.13;;
44197;SDS011;30157;55.512;37.764;2023-04-25T07:00:57;3.88;;;2.50;;
44197;SDS011;30157;55.512;37.764;2023-04-25T07:03:25;4.47;;;2.60;;
44197;SDS011;30157;55.512;37.764;2023-04-25T07:05:55;5.47;;;3.40;;
44197;SDS011;30157;55.512;37.764;2023-04-25T07:08:20;6.15;;;2.88;;
44197;SDS011;30157;55.512;37.764;2023-04-25T07:10:46;4.53;;;2.90;;
44197;SDS011;30157;55.512;37.764;2023-04-25T07:13:12;4.78;;;2.58;;
44197;SDS011;30157;55.512;37.764;2023-04-25T07:15:38;5.30;;;2.90;;
44197;SDS011;30157;55.512;37.764;2023-04-25T07:18:05;5.22;;;2.50;;
44197;SDS011;30157;55.512;37.764;2023-04-25T07:20:31;5.97;;;3.00;;
44197;SDS011;30157;55.512;37.764;2023-04-25T07:22:58;4.22;;;3.00;;
44197;SDS011;30157;55.512;37.764;2023-04-25T07:25:24;4.72;;;2.97;;
44197;SDS011;30157;55.512;37.764;2023-04-25T07:27:50;3.55;;;2.33;;
44197;SDS011;30157;55.512;37.764;2023-04-25T07:30:18;5.47;;;2.70;;
44197;SDS011;30157;55.512;37.764;2023-04-25T07:32:44;3.67;;;2.50;;
44197;SDS011;30157;55.512;37.764;2023-04-25T07:35:10;4.45;;;2.65;;
44197;SDS011;30157;55.512;37.764;2023-04-25T07:37:37;5.75;;;2.95;;
44197;SDS011;30157;55.512;37.764;2023-04-25T07:40:10;3.33;;;2.42;;
44197;SDS011;30157;55.512;37.764;2023-04-25T07:42:41;5.43;;;2.55;;
44197;SDS011;30157;55.512;37.764;2023-04-25T07:45:08;4.53;;;3.05;;
44197;SDS011;30157;55.512;37.764;2023-04-25T07:47:35;3.30;;;2.10;;
44197;SDS011;30157;55.512;37.764;2023-04-25T07:50:01;4.15;;;2.80;;
44197;SDS011;30157;55.512;37.764;2023-04-25T07:52:30;5.07;;;2.67;;
44197;SDS011;30157;55.512;37.764;2023-04-25T07:55:04;4.22;;;2.88;;
44197;SDS011;30157;55.512;37.764;2023-04-25T07:57:41;3.97;;;2.80;;
44197;SDS011;30157;55.512;37.764;2023-04-25T08:00:07;3.53;;;2.90;;
44197;SDS011;30157;55.512;37.764;2023-04-25T08:02:39;3.50;;;2.60;;
44197;SDS011;30157;55.512;37.764;2023-04-25T08:05:10;4.57;;;3.08;;
44197;SDS011;30157;55.512;37.764;2023-04-25T08:07:42;3.30;;;3.00;;
44197;SDS011;30157;55.512;37.764;2023-04-25T08:10:08;3.50;;;2.58;;
44197;SDS011;30157;55.512;37.764;2023-04-25T08:12:34;3.28;;;2.28;;
44197;SDS011;30157;55.512;37.764;2023-04-25T08:15:01;4.30;;;2.20;;
44197;SDS011;30157;55.512;37.764;2023-04-25T08:17:31;4.95;;;2.50;;
44197;SDS011;30157;55.512;37.764;2023-04-25T08:19:57;3.05;;;2.15;;
44197;SDS011;30157;55.512;37.764;2023-04-25T08:22:30;4.00;;;2.35;;
44197;SDS011;30157;55.512;37.764;2023-04-25T08:25:19;2.67;;;2.10;;
44197;SDS011;30157;55.512;37.764;2023-04-25T08:27:45;4.13;;;2.50;;
44197;SDS011;30157;55.512;37.764;2023-04-25T08:30:11;4.55;;;2.80;;
44197;SDS011;30157;55.512;37.764;2023-04-25T08:32:39;3.50;;;2.60;;
44197;SDS011;30157;55.512;37.764;2023-04-25T08:35:19;2.85;;;2.10;;
44197;SDS011;30157;55.512;37.764;2023-04-25T08:37:46;3.60;;;2.85;;
44197;SDS011;30157;55.512;37.764;2023-04-25T08:40:14;5.43;;;2.90;;
44197;SDS011;30157;55.512;37.764;2023-04-25T08:42:54;5.32;;;3.10;;
44197;SDS011;30157;55.512;37.764;2023-04-25T08:45:24;4.63;;;2.50;;
44197;SDS011;30157;55.512;37.764;2023-04-25T08:47:53;3.67;;;2.63;;
44197;SDS011;30157;55.512;37.764;2023-04-25T08:50:21;4.93;;;2.50;;
44197;SDS011;30157;55.512;37.764;2023-04-25T08:52:50;3.72;;;2.30;;
44197;SDS011;30157;55.512;37.764;2023-04-25T08:55:18;6.75;;;2.25;;
44197;SDS011;30157;55.512;37.764;2023-04-25T08:57:48;3.28;;;2.13;;
44197;SDS011;30157;55.512;37.764;2023-04-25T09:00:16;4.22;;;2.30;;
44197;SDS011;30157;55.512;37.764;2023-04-25T09:02:45;3.20;;;2.00;;
44197;SDS011;30157;55.512;37.764;2023-04-25T09:05:12;2.80;;;1.85;;
44197;SDS011;30157;55.512;37.764;2023-04-25T09:07:40;3.30;;;1.98;;
44197;SDS011;30157;55.512;37.764;2023-04-25T09:10:06;4.75;;;2.28;;
44197;SDS011;30157;55.512;37.764;2023-04-25T09:12:36;3.00;;;2.17;;
44197;SDS011;30157;55.512;37.764;2023-04-25T09:15:04;3.97;;;1.80;;
44197;SDS011;30157;55.512;37.764;2023-04-25T09:18:02;5.60;;;2.22;;
44197;SDS011;30157;55.512;37.764;2023-04-25T09:20:46;3.63;;;2.20;;
44197;SDS011;30157;55.512;37.764;2023-04-25T09:23:11;2.42;;;2.00;;
44197;SDS011;30157;55.512;37.764;2023-04-25T09:25:37;4.05;;;2.05;;
44197;SDS011;30157;55.512;37.764;2023-04-25T09:28:09;3.42;;;2.03;;
44197;SDS011;30157;55.512;37.764;2023-04-25T09:30:36;2.60;;;1.75;;
44197;SDS011;30157;55.512;37.764;2023-04-25T09:33:10;5.97;;;1.83;;
44197;SDS011;30157;55.512;37.764;2023-04-25T09:35:40;5.20;;;2.22;;
44197;SDS011;30157;55.512;37.764;2023-04-25T09:38:13;4.03;;;2.10;;
44197;SDS011;30157;55.512;37.764;2023-04-25T09:40:59;3.15;;;1.90;;
44197;SDS011;30157;55.512;37.764;2023-04-25T09:43:39;3.03;;;2.33;;
44197;SDS011;30157;55.512;37.764;2023-04-25T09:46:09;3.63;;;2.17;;
44197;SDS011;30157;55.512;37.764;2023-04-25T09:48:39;8.27;;;2.58;;
44197;SDS011;30157;55.512;37.764;2023-04-25T09:51:12;4.10;;;2.70;;
44197;SDS011;30157;55.512;37.764;2023-04-25T09:53:45;2.83;;;2.10;;
44197;SDS011;30157;55.512;37.764;2023-04-25T09:56:35;5.93;;;2.50;;
44197;SDS011;30157;55.512;37.764;2023-04-25T09:59:06;6.07;;;3.60;;
44197;SDS011;30157;55.512;37.764;2023-04-25T10:01:34;2.95;;;2.20;;
44197;SDS011;30157;55.512;37.764;2023-04-25T10:04:12;2.30;;;1.90;;
44197;SDS011;30157;55.512;37.764;2023-04-25T10:09:25;3.35;;;2.17;;
44197;SDS011;30157;55.512;37.764;2023-04-25T10:11:51;3.55;;;1.90;;
44197;SDS011;30157;55.512;37.764;2023-04-25T10:14:18;5.30;;;2.30;;
44197;SDS011;30157;55.512;37.764;2023-04-25T10:16:44;2.80;;;1.80;;
44197;SDS011;30157;55.512;37.764;2023-04-25T10:19:12;2.22;;;1.50;;
44197;SDS011;30157;55.512;37.764;2023-04-25T10:21:44;3.22;;;1.70;;
44197;SDS011;30157;55.512;37.764;2023-04-25T10:24:15;3.70;;;1.70;;
44197;SDS011;30157;55.512;37.764;2023-04-25T10:26:41;1.88;;;1.50;;
44197;SDS011;30157;55.512;37.764;2023-04-25T10:29:08;2.05;;;1.40;;
44197;SDS011;30157;55.512;37.764;2023-04-25T10:31:38;2.88;;;1.80;;
44197;SDS011;30157;55.512;37.764;2023-04-25T10:34:10;2.65;;;1.75;;
44197;SDS011;30157;55.512;37.764;2023-04-25T10:36:36;1.98;;;1.50;;
44197;SDS011;30157;55.512;37.764;2023-04-25T10:39:03;2.83;;;1.60;;
44197;SDS011;30157;55.512;37.764;2023-04-25T10:41:32;2.42;;;1.45;;
44197;SDS011;30157;55.512;37.764;2023-04-25T10:44:11;2.28;;;1.60;;
44197;SDS011;30157;55.512;37.764;2023-04-25T10:46:37;3.25;;;1.80;;
44197;SDS011;30157;55.512;37.764;2023-04-25T10:49:03;2.70;;;1.88;;
44197;SDS011;30157;55.512;37.764;2023-04-25T10:51:32;3.40;;;1.80;;
44197;SDS011;30157;55.512;37.764;2023-04-25T10:53:59;3.15;;;1.90;;
44197;SDS011;30157;55.512;37.764;2023-04-25T10:59:08;4.82;;;1.88;;
44197;SDS011;30157;55.512;37.764;2023-04-25T11:01:42;2.22;;;1.80;;
44197;SDS011;30157;55.512;37.764;2023-04-25T11:07:12;2.42;;;1.60;;
44197;SDS011;30157;55.512;37.764;2023-04-25T11:09:48;3.38;;;2.00;;
44197;SDS011;30157;55.512;37.764;2023-04-25T11:12:14;2.90;;;2.08;;
44197;SDS011;30157;55.512;37.764;2023-04-25T11:14:41;2.85;;;1.83;;
44197;SDS011;30157;55.512;37.764;2023-04-25T11:17:07;5.05;;;2.20;;
44197;SDS011;30157;55.512;37.764;2023-04-25T11:19:33;1.65;;;1.50;;
44197;SDS011;30157;55.512;37.764;2023-04-25T11:21:59;3.38;;;2.42;;
44197;SDS011;30157;55.512;37.764;2023-04-25T11:24:29;2.33;;;1.70;;
44197;SDS011;30157;55.512;37.764;2023-04-25T11:26:57;2.15;;;1.60;;
44197;SDS011;30157;55.512;37.764;2023-04-25T11:29:27;2.92;;;1.90;;
44197;SDS011;30157;55.512;37.764;2023-04-25T11:31:54;2.55;;;1.70;;
44197;SDS011;30157;55.512;37.764;2023-04-25T11:34:23;3.03;;;1.85;;
44197;SDS011;30157;55.512;37.764;2023-04-25T11:36:50;3.05;;;2.10;;
44197;SDS011;30157;55.512;37.764;2023-04-25T11:39:18;3.60;;;1.50;;
44197;SDS011;30157;55.512;37.764;2023-04-25T11:41:45;3.28;;;1.80;;
44197;SDS011;30157;55.512;37.764;2023-04-25T11:44:11;4.25;;;1.80;;
44197;SDS011;30157;55.512;37.764;2023-04-25T11:46:40;3.20;;;1.73;;
44197;SDS011;30157;55.512;37.764;2023-04-25T11:49:06;3.67;;;1.85;;
44197;SDS011;30157;55.512;37.764;2023-04-25T11:51:37;3.10;;;1.88;;
44197;SDS011;30157;55.512;37.764;2023-04-25T11:54:06;2.60;;;2.00;;
44197;SDS011;30157;55.512;37.764;2023-04-25T11:56:33;3.95;;;2.30;;
44197;SDS011;30157;55.512;37.764;2023-04-25T11:58:59;2.58;;;1.70;;
44197;SDS011;30157;55.512;37.764;2023-04-25T12:01:37;2.63;;;1.90;;
44197;SDS011;30157;55.512;37.764;2023-04-25T12:04:14;2.17;;;1.65;;
44197;SDS011;30157;55.512;37.764;2023-04-25T12:06:48;2.30;;;1.63;;
44197;SDS011;30157;55.512;37.764;2023-04-25T12:09:50;2.45;;;1.80;;
44197;SDS011;30157;55.512;37.764;2023-04-25T12:12:09;5.75;;;1.90;;
44197;SDS011;30157;55.512;37.764;2023-04-25T12:14:35;4.72;;;1.83;;
44197;SDS011;30157;55.512;37.764;2023-04-25T12:17:02;2.83;;;1.73;;
44197;SDS011;30157;55.512;37.764;2023-04-25T12:19:37;3.35;;;1.60;;
44197;SDS011;30157;55.512;37.764;2023-04-25T12:22:18;3.28;;;1.80;;
44197;SDS011;30157;55.512;37.764;2023-04-25T12:24:48;2.88;;;1.90;;
44197;SDS011;30157;55.512;37.764;2023-04-25T12:27:14;3.05;;;2.40;;
44197;SDS011;30157;55.512;37.764;2023-04-25T12:29:49;2.95;;;2.13;;
44197;SDS011;30157;55.512;37.764;2023-04-25T12:32:19;3.13;;;2.20;;
44197;SDS011;30157;55.512;37.764;2023-04-25T12:34:46;4.10;;;2.60;;
44197;SDS011;30157;55.512;37.764;2023-04-25T12:37:11;3.45;;;2.60;;
44197;SDS011;30157;55.512;37.764;2023-04-25T12:39:38;10.75;;;7.25;;
44197;SDS011;30157;55.512;37.764;2023-04-25T12:42:03;4.13;;;2.50;;
44197;SDS011;30157;55.512;37.764;2023-04-25T12:44:29;2.75;;;2.40;;
44197;SDS011;30157;55.512;37.764;2023-04-25T12:46:55;3.40;;;2.40;;
44197;SDS011;30157;55.512;37.764;2023-04-25T12:49:21;3.88;;;2.40;;
44197;SDS011;30157;55.512;37.764;2023-04-25T12:51:47;2.83;;;2.10;;
44197;SDS011;30157;55.512;37.764;2023-04-25T12:54:13;3.05;;;2.25;;
44197;SDS011;30157;55.512;37.764;2023-04-25T12:56:40;3.15;;;2.33;;
44197;SDS011;30157;55.512;37.764;2023-04-25T12:59:06;3.47;;;2.00;;
44197;SDS011;30157;55.512;37.764;2023-04-25T13:01:32;2.92;;;2.03;;
44197;SDS011;30157;55.512;37.764;2023-04-25T13:03:58;3.80;;;2.35;;
44197;SDS011;30157;55.512;37.764;2023-04-25T13:06:23;2.83;;;2.13;;
44197;SDS011;30157;55.512;37.764;2023-04-25T13:08:49;4.38;;;2.40;;
44197;SDS011;30157;55.512;37.764;2023-04-25T13:11:15;3.45;;;2.28;;
44197;SDS011;30157;55.512;37.764;2023-04-25T13:13:41;3.22;;;2.13;;
44197;SDS011;30157;55.512;37.764;2023-04-25T13:16:09;4.30;;;1.92;;
44197;SDS011;30157;55.512;37.764;2023-04-25T13:18:35;3.83;;;2.28;;
44197;SDS011;30157;55.512;37.764;2023-04-25T13:21:01;3.25;;;2.00;;
44197;SDS011;30157;55.512;37.764;2023-04-25T13:23:27;5.97;;;2.45;;
44197;SDS011;30157;55.512;37.764;2023-04-25T13:25:54;3.22;;;2.45;;
44197;SDS011;30157;55.512;37.764;2023-04-25T13:28:24;3.25;;;2.20;;
44197;SDS011;30157;55.512;37.764;2023-04-25T13:30:50;3.20;;;2.15;;
44197;SDS011;30157;55.512;37.764;2023-04-25T13:33:17;7.72;;;4.20;;
44197;SDS011;30157;55.512;37.764;2023-04-25T13:35:43;5.82;;;4.18;;
44197;SDS011;30157;55.512;37.764;2023-04-25T13:38:21;10.57;;;4.72;;
44197;SDS011;30157;55.512;37.764;2023-04-25T13:40:48;5.45;;;3.47;;
44197;SDS011;30157;55.512;37.764;2023-04-25T13:43:15;3.75;;;2.70;;
44197;SDS011;30157;55.512;37.764;2023-04-25T13:45:41;3.38;;;2.40;;
44197;SDS011;30157;55.512;37.764;2023-04-25T13:48:07;2.75;;;2.30;;
44197;SDS011;30157;55.512;37.764;2023-04-25T13:50:33;4.60;;;2.45;;
44197;SDS011;30157;55.512;37.764;2023-04-25T13:53:01;3.20;;;2.30;;
44197;SDS011;30157;55.512;37.764;2023-04-25T13:55:27;2.97;;;2.53;;
44197;SDS011;30157;55.512;37.764;2023-04-25T13:57:54;3.78;;;2.40;;
44197;SDS011;30157;55.512;37.764;2023-04-25T14:00:20;3.90;;;2.58;;
44197;SDS011;30157;55.512;37.764;2023-04-25T14:02:46;4.93;;;2.35;;
44197;SDS011;30157;55.512;37.764;2023-04-25T14:05:15;3.13;;;2.50;;
44197;SDS011;30157;55.512;37.764;2023-04-25T14:07:40;3.75;;;2.45;;
44197;SDS011;30157;55.512;37.764;2023-04-25T14:10:07;3.35;;;2.40;;
44197;SDS011;30157;55.512;37.764;2023-04-25T14:12:33;3.80;;;2.60;;
44197;SDS011;30157;55.512;37.764;2023-04-25T14:14:59;10.68;;;8.73;;
44197;SDS011;30157;55.512;37.764;2023-04-25T14:17:25;5.38;;;3.78;;
44197;SDS011;30157;55.512;37.764;2023-04-25T14:19:51;4.07;;;3.00;;
44197;SDS011;30157;55.512;37.764;2023-04-25T14:22:20;4.97;;;2.75;;
44197;SDS011;30157;55.512;37.764;2023-04-25T14:24:46;5.40;;;3.00;;
44197;SDS011;30157;55.512;37.764;2023-04-25T14:27:11;5.32;;;3.30;;
44197;SDS011;30157;55.512;37.764;2023-04-25T14:29:37;4.82;;;3.45;;
44197;SDS011;30157;55.512;37.764;2023-04-25T14:32:03;5.10;;;3.50;;
44197;SDS011;30157;55.512;37.764;2023-04-25T14:34:30;4.65;;;3.10;;
44197;SDS011;30157;55.512;37.764;2023-04-25T14:36:59;4.03;;;3.28;;
44197;SDS011;30157;55.512;37.764;2023-04-25T14:39:25;4.35;;;3.30;;
44197;SDS011;30157;55.512;37.764;2023-04-25T14:41:51;3.75;;;2.90;;
44197;SDS011;30157;55.512;37.764;2023-04-25T14:44:17;6.18;;;3.88;;
44197;SDS011;30157;55.512;37.764;2023-04-25T14:46:42;4.40;;;3.20;;
44197;SDS011;30157;55.512;37.764;2023-04-25T14:49:08;4.57;;;3.22;;
44197;SDS011;30157;55.512;37.764;2023-04-25T14:51:34;5.95;;;3.15;;
44197;SDS011;30157;55.512;37.764;2023-04-25T14:54:00;6.35;;;3.58;;